createdAt,value
2019-02-23T06:09:21.917Z,21.53
2019-02-23T06:11:51.004Z,20.37
2019-02-23T06:14:20.739Z,20.57
2019-02-23T06:16:50.385Z,20.57
2019-02-23T06:19:20.238Z,20.17
2019-02-23T06:21:54.191Z,20.20
2019-02-23T06:24:19.560Z,20.73
2019-02-23T06:26:49.349Z,18.43
2019-02-23T06:29:19.065Z,19.73
2019-02-23T06:31:48.784Z,20.10
2019-02-23T06:34:18.116Z,19.80
2019-02-23T06:36:48.299Z,19.27
2019-02-23T06:39:17.655Z,19.07
2019-02-23T06:41:47.487Z,17.73
2019-02-23T06:44:16.911Z,18.77
2019-02-23T06:46:46.439Z,20.30
2019-02-23T06:49:16.152Z,18.57
2019-02-23T06:51:46.169Z,19.63
2019-02-23T06:54:15.472Z,19.70
2019-02-23T06:56:45.488Z,18.67
2019-02-23T06:59:14.946Z,15.83
2019-02-23T07:01:44.738Z,19.13
2019-02-23T07:04:14.309Z,18.30
2019-02-23T07:06:43.363Z,17.60
2019-02-23T07:09:13.176Z,17.70
2019-02-23T07:11:42.605Z,18.43
2019-02-23T07:14:12.218Z,19.17
2019-02-23T07:16:42.041Z,18.10
2019-02-23T07:19:11.958Z,15.30
2019-02-23T07:21:42.160Z,17.90
2019-02-23T07:24:11.756Z,18.33
2019-02-23T07:26:41.100Z,18.60
2019-02-23T07:29:12.319Z,16.70
2019-02-23T07:31:42.044Z,18.53
2019-02-23T07:34:11.549Z,17.90
2019-02-23T07:36:40.937Z,16.03
2019-02-23T07:39:10.183Z,17.63
2019-02-23T07:41:40.316Z,18.07
2019-02-23T07:44:10.049Z,18.27
2019-02-23T07:46:39.717Z,18.20
2019-02-23T07:49:09.504Z,17.90
2019-02-23T07:51:38.945Z,17.83
2019-02-23T07:54:07.609Z,18.87
2019-02-23T07:56:37.491Z,16.83
2019-02-23T07:59:06.596Z,17.57
2019-02-23T08:01:38.628Z,18.27
2019-02-23T08:04:07.819Z,17.10
2019-02-23T08:06:37.018Z,17.13
2019-02-23T08:09:06.869Z,17.23
2019-02-23T08:11:36.426Z,7.60
2019-02-23T08:14:05.927Z,12.63
2019-02-23T08:16:35.411Z,17.47
2019-02-23T08:19:04.799Z,15.60
2019-02-23T08:21:34.035Z,17.47
2019-02-23T08:24:03.473Z,18.43
2019-02-23T08:26:32.305Z,16.37
2019-02-23T08:29:01.846Z,13.43
2019-02-23T08:31:30.936Z,15.83
2019-02-23T08:34:00.136Z,18.07
2019-02-23T08:36:29.973Z,16.97
2019-02-23T08:38:59.582Z,12.90
2019-02-23T08:41:29.011Z,17.87
2019-02-23T08:43:58.588Z,17.33
2019-02-23T08:46:28.225Z,17.60
2019-02-23T08:48:57.854Z,17.50
2019-02-23T08:51:27.445Z,12.43
2019-02-23T08:53:56.575Z,16.73
2019-02-23T08:56:26.222Z,11.80
2019-02-23T08:58:55.755Z,7.10
2019-02-23T09:01:24.954Z,17.53
2019-02-23T09:03:53.677Z,17.20
2019-02-23T09:06:23.358Z,16.83
2019-02-23T09:08:53.203Z,17.43
2019-02-23T09:11:22.803Z,17.27
2019-02-23T09:13:51.832Z,19.00
2019-02-23T09:16:21.340Z,11.00
2019-02-23T09:18:50.592Z,12.23
2019-02-23T09:21:19.304Z,18.03
2019-02-23T09:23:48.795Z,10.90
2019-02-23T09:26:18.349Z,13.77
2019-02-23T09:28:47.206Z,9.43
2019-02-23T09:31:16.395Z,17.60
2019-02-23T09:33:45.428Z,13.30
2019-02-23T09:36:14.733Z,16.90
2019-02-23T09:38:43.943Z,11.77
2019-02-23T09:41:12.928Z,6.87
2019-02-23T09:43:42.375Z,6.50
2019-02-23T09:46:11.808Z,6.33
2019-02-23T09:48:41.008Z,6.60
2019-02-23T09:51:10.091Z,6.27
2019-02-23T09:53:39.244Z,7.07
2019-02-23T09:56:08.432Z,7.60
2019-02-23T09:58:37.136Z,6.70
2019-02-23T10:01:06.364Z,7.57
2019-02-23T10:03:35.889Z,7.03
2019-02-23T10:06:04.840Z,7.23
2019-02-23T10:08:34.085Z,11.63
2019-02-23T10:11:03.156Z,11.43
2019-02-23T10:13:32.728Z,14.53
2019-02-23T10:16:02.604Z,7.20
2019-02-23T10:18:32.133Z,6.93
2019-02-23T10:21:02.014Z,6.87
2019-02-23T10:23:31.451Z,7.60
2019-02-23T10:26:00.221Z,7.60
2019-02-23T10:28:29.396Z,7.40
2019-02-23T10:30:58.226Z,11.60
2019-02-23T10:33:27.735Z,17.43
2019-02-23T10:35:57.095Z,15.87
2019-02-23T10:38:26.649Z,16.93
2019-02-23T10:40:55.824Z,15.30
2019-02-23T10:43:25.289Z,14.13
2019-02-23T10:45:54.769Z,14.23
2019-02-23T10:48:23.981Z,15.70
2019-02-23T10:50:53.479Z,9.03
2019-02-23T10:53:32.604Z,15.53
2019-02-23T10:55:52.603Z,14.77
2019-02-23T10:58:21.892Z,15.10
2019-02-23T11:00:51.040Z,14.83
2019-02-23T11:03:20.090Z,14.30
2019-02-23T11:05:49.695Z,13.03
2019-02-23T11:08:18.787Z,10.00
2019-02-23T11:10:47.649Z,12.37
2019-02-23T11:13:16.883Z,15.53
2019-02-23T11:15:46.123Z,7.70
2019-02-23T11:18:15.570Z,6.40
2019-02-23T11:20:45.049Z,11.07
2019-02-23T11:23:14.587Z,11.70
2019-02-23T11:25:43.988Z,13.73
2019-02-23T11:28:13.194Z,10.97
2019-02-23T11:30:42.336Z,6.30
2019-02-23T11:33:11.789Z,14.50
2019-02-23T11:35:41.254Z,14.60
2019-02-23T11:38:10.486Z,14.03
2019-02-23T11:40:39.322Z,15.00
2019-02-23T11:43:08.844Z,14.80
2019-02-23T11:45:38.450Z,14.50
2019-02-23T11:48:08.219Z,13.43
2019-02-23T11:50:37.037Z,11.57
2019-02-23T11:53:06.249Z,11.80
2019-02-23T11:55:36.207Z,13.57
2019-02-23T11:58:05.725Z,14.33
2019-02-23T12:00:35.211Z,13.90
2019-02-23T12:03:04.432Z,6.87
2019-02-23T12:05:33.695Z,10.07
2019-02-23T12:08:02.646Z,14.33
2019-02-23T12:10:32.286Z,14.90
2019-02-23T12:13:01.432Z,14.87
2019-02-23T12:15:31.026Z,14.43
2019-02-23T12:18:00.292Z,11.13
2019-02-23T12:20:29.810Z,10.30
2019-02-23T12:22:59.572Z,14.37
2019-02-23T12:25:29.159Z,4.83
2019-02-23T12:27:58.408Z,15.80
2019-02-23T12:30:28.005Z,15.53
2019-02-23T12:32:57.196Z,18.77
2019-02-23T12:35:25.957Z,15.90
2019-02-23T12:37:55.469Z,11.97
2019-02-23T12:40:24.642Z,14.73
2019-02-23T12:42:53.742Z,14.37
2019-02-23T12:45:23.440Z,15.10
2019-02-23T12:47:52.299Z,10.93
2019-02-23T12:50:21.477Z,13.63
2019-02-23T12:52:50.788Z,8.27
2019-02-23T12:55:19.924Z,11.90
2019-02-23T12:57:49.088Z,12.47
2019-02-23T13:00:18.108Z,4.37
2019-02-23T13:02:47.734Z,10.43
2019-02-23T13:05:17.421Z,12.83
2019-02-23T13:07:46.713Z,13.87
2019-02-23T13:10:15.671Z,14.10
2019-02-23T13:14:00.214Z,13.33
2019-02-23T13:16:39.782Z,8.70
2019-02-23T13:20:33.532Z,12.73
2019-02-23T13:25:21.231Z,10.37
2019-02-23T13:28:00.937Z,12.33
2019-02-23T13:30:41.175Z,4.90
2019-02-23T13:33:22.919Z,6.17
2019-02-23T13:36:08.020Z,12.03
2019-02-23T13:38:51.544Z,12.70
2019-02-23T13:41:32.277Z,13.80
2019-02-23T13:45:30.314Z,9.67
2019-02-23T13:48:12.162Z,10.03
2019-02-23T13:50:51.586Z,9.30
2019-02-23T13:54:50.107Z,11.77
2019-02-23T13:57:47.995Z,12.70
2019-02-23T14:01:26.147Z,9.97
2019-02-23T14:05:07.787Z,13.33
2019-02-23T14:09:58.465Z,10.87
2019-02-23T14:12:41.072Z,14.20
2019-02-23T14:15:42.972Z,13.90
2019-02-23T14:18:23.677Z,11.73
2019-02-23T14:21:08.490Z,13.13
2019-02-23T14:23:45.475Z,12.87
2019-02-23T14:27:34.621Z,4.07
2019-02-23T14:31:11.675Z,13.90
2019-02-23T14:34:56.575Z,13.27
2019-02-23T14:37:39.413Z,9.43
2019-02-23T14:42:28.178Z,13.10
2019-02-23T14:45:26.553Z,11.90
2019-02-23T14:48:14.521Z,13.60
2019-02-23T14:51:00.928Z,13.13
2019-02-23T14:54:10.472Z,10.10
2019-02-23T14:56:54.579Z,12.17
2019-02-23T15:00:24.821Z,4.10
2019-02-23T15:05:14.310Z,13.53
2019-02-23T15:08:00.454Z,13.73
2019-02-23T15:11:18.616Z,10.07
2019-02-23T15:16:16.590Z,13.40
2019-02-23T15:20:50.187Z,6.50
2019-02-23T15:23:50.208Z,11.17
2019-02-23T15:28:51.642Z,13.67
2019-02-23T15:32:35.215Z,6.60
2019-02-23T15:35:26.214Z,14.33
2019-02-23T15:38:09.656Z,13.43
2019-02-23T15:40:55.295Z,14.83
2019-02-23T15:43:38.836Z,10.53
2019-02-23T15:46:34.646Z,11.60
2019-02-23T15:49:18.604Z,14.57
2019-02-23T15:51:48.470Z,15.17
2019-02-23T15:54:17.678Z,14.77
2019-02-23T15:56:46.856Z,15.83
2019-02-23T15:59:16.447Z,10.40
2019-02-23T16:01:45.535Z,17.97
2019-02-23T16:04:15.337Z,17.53
2019-02-23T16:06:44.148Z,15.40
2019-02-23T16:09:13.396Z,13.57
2019-02-23T16:11:45.227Z,13.47
2019-02-23T16:14:12.742Z,17.47
2019-02-23T16:16:42.521Z,17.23
2019-02-23T16:19:11.612Z,17.00
2019-02-23T16:21:41.141Z,13.93
2019-02-23T16:24:10.759Z,18.63
2019-02-23T16:26:40.414Z,13.57
2019-02-23T16:29:09.937Z,14.30
2019-02-23T16:31:39.409Z,13.37
2019-02-23T16:34:08.518Z,17.53
2019-02-23T16:36:37.734Z,15.57
2019-02-23T16:39:10.638Z,17.20
2019-02-23T16:41:39.897Z,16.83
2019-02-23T16:44:09.243Z,17.07
2019-02-23T16:46:37.773Z,18.00
2019-02-23T16:49:07.388Z,10.20
2019-02-23T16:51:37.006Z,16.40
2019-02-23T16:54:05.785Z,14.53
2019-02-23T16:56:35.264Z,10.30
2019-02-23T16:59:04.940Z,16.33
2019-02-23T17:01:34.519Z,16.20
2019-02-23T17:04:04.004Z,16.17
2019-02-23T17:06:33.802Z,16.57
2019-02-23T17:09:03.485Z,16.37
2019-02-23T17:11:32.522Z,15.93
2019-02-23T17:14:01.783Z,16.97
2019-02-23T17:16:30.948Z,17.37
2019-02-23T17:18:59.725Z,17.20
2019-02-23T17:21:29.424Z,16.47
2019-02-23T17:23:58.800Z,17.20
2019-02-23T17:26:27.945Z,17.87
2019-02-23T17:28:57.596Z,17.60
2019-02-23T17:31:27.315Z,17.63
2019-02-23T17:33:56.019Z,16.63
2019-02-23T17:36:24.474Z,18.27
2019-02-23T17:38:54.041Z,16.37
2019-02-23T17:41:23.680Z,17.07
2019-02-23T17:43:54.150Z,15.80
2019-02-23T17:46:23.051Z,16.50
2019-02-23T17:48:52.620Z,16.53
2019-02-23T17:51:22.133Z,4.03
2019-02-23T17:53:51.650Z,16.20
2019-02-23T17:56:21.291Z,16.63
2019-02-23T17:58:50.836Z,16.77
2019-02-23T18:01:20.498Z,15.83
2019-02-23T18:03:50.132Z,16.37
2019-02-23T18:06:19.368Z,16.20
2019-02-23T18:08:48.934Z,12.67
2019-02-23T18:11:18.305Z,15.80
2019-02-23T18:13:48.222Z,15.73
2019-02-23T18:16:17.450Z,15.77
2019-02-23T18:18:46.996Z,15.77
2019-02-23T18:21:15.948Z,15.63
2019-02-23T18:23:45.392Z,11.67
2019-02-23T18:26:20.985Z,16.17
2019-02-23T18:28:44.432Z,15.90
2019-02-23T18:31:13.499Z,15.37
2019-02-23T18:33:43.253Z,14.87
2019-02-23T18:36:12.878Z,16.13
2019-02-23T18:38:42.676Z,15.60
2019-02-23T18:41:12.170Z,15.73
2019-02-23T18:43:41.832Z,15.77
2019-02-23T18:46:11.505Z,17.03
2019-02-23T18:48:41.108Z,15.93
2019-02-23T18:51:10.639Z,17.00
2019-02-23T18:53:40.180Z,16.27
2019-02-23T18:56:09.822Z,17.00
2019-02-23T18:58:39.571Z,16.50
2019-02-23T19:01:09.089Z,18.87
2019-02-23T19:03:38.591Z,16.63
2019-02-23T19:06:08.162Z,16.97
2019-02-23T19:08:37.640Z,15.67
2019-02-23T19:11:07.272Z,16.57
2019-02-23T19:13:36.775Z,16.77
2019-02-23T19:16:06.189Z,17.10
2019-02-23T19:18:36.002Z,16.57
2019-02-23T19:21:05.600Z,17.10
2019-02-23T19:23:34.763Z,15.77
2019-02-23T19:26:04.248Z,16.63
2019-02-23T19:28:33.761Z,16.27
2019-02-23T19:31:03.008Z,16.83
2019-02-23T19:33:32.491Z,17.00
2019-02-23T19:36:01.712Z,16.33
2019-02-23T19:38:31.223Z,17.43
2019-02-23T19:41:00.838Z,17.03
2019-02-23T19:43:30.336Z,16.33
2019-02-23T19:46:00.006Z,15.93
2019-02-23T19:48:29.528Z,16.77
2019-02-23T19:51:02.557Z,16.27
2019-02-23T19:53:32.060Z,15.77
2019-02-23T19:56:01.528Z,13.57
2019-02-23T19:58:31.135Z,16.80
2019-02-23T20:01:00.555Z,16.43
2019-02-23T20:03:30.205Z,17.43
2019-02-23T20:05:59.764Z,15.73
2019-02-23T20:08:29.709Z,16.40
2019-02-23T20:10:59.211Z,10.13
2019-02-23T20:13:28.813Z,15.97
2019-02-23T20:15:58.649Z,16.20
2019-02-23T20:18:27.583Z,15.53
2019-02-23T20:20:57.111Z,16.30
2019-02-23T20:23:26.741Z,16.50
2019-02-23T20:25:56.601Z,16.40
2019-02-23T20:28:26.012Z,16.07
2019-02-23T20:30:55.536Z,16.37
2019-02-23T20:33:25.083Z,16.63
2019-02-23T20:35:54.508Z,16.10
2019-02-23T20:38:24.050Z,17.33
2019-02-23T20:40:53.555Z,16.67
2019-02-23T20:43:22.874Z,17.57
2019-02-23T20:45:52.041Z,17.97
2019-02-23T20:48:21.392Z,16.30
2019-02-23T20:50:51.056Z,17.10
2019-02-23T20:53:20.851Z,15.63
2019-02-23T20:55:50.344Z,15.23
2019-02-23T20:58:19.821Z,16.50
2019-02-23T21:00:49.783Z,16.90
2019-02-23T21:03:20.103Z,17.60
2019-02-23T21:05:49.547Z,16.87
2019-02-23T21:08:19.174Z,16.47
2019-02-23T21:10:48.704Z,16.33
2019-02-23T21:13:18.579Z,17.07
2019-02-23T21:15:47.965Z,16.70
2019-02-23T21:18:17.605Z,16.13
2019-02-23T21:20:47.252Z,16.53
2019-02-23T21:23:16.739Z,16.47
2019-02-23T21:25:46.211Z,16.93
2019-02-23T21:28:15.313Z,16.23
2019-02-23T21:30:44.731Z,16.93
2019-02-23T21:33:14.367Z,18.40
2019-02-23T21:35:43.924Z,18.17
2019-02-23T21:38:13.475Z,17.83
2019-02-23T21:40:42.615Z,16.77
2019-02-23T21:43:12.223Z,7.37
2019-02-23T21:45:41.699Z,6.67
2019-02-23T21:48:11.156Z,8.47
2019-02-23T21:50:40.598Z,16.80
2019-02-23T21:53:10.113Z,17.20
2019-02-23T21:55:39.617Z,16.30
